createdAt,value
2024-01-06T00:02:47.094Z,25.02
2024-01-06T00:07:48.777Z,25.13
2024-01-06T00:12:50.519Z,24.30
2024-01-06T00:17:52.262Z,23.63
2024-01-06T00:22:53.942Z,23.73
2024-01-06T00:27:55.618Z,23.25
2024-01-06T00:32:57.397Z,23.70
2024-01-06T00:38:01.756Z,24.33
2024-01-06T00:43:03.560Z,24.55
2024-01-06T00:48:06.152Z,23.40
2024-01-06T00:53:07.957Z,24.05
2024-01-06T00:58:09.923Z,24.48
2024-01-06T01:03:11.704Z,21.77
2024-01-06T01:08:13.341Z,23.65
2024-01-06T01:13:14.998Z,24.00
2024-01-06T01:18:16.866Z,22.55
2024-01-06T01:23:18.527Z,23.17
2024-01-06T01:28:20.267Z,24.05
2024-01-06T01:33:22.295Z,23.45
2024-01-06T01:38:23.969Z,22.52
2024-01-06T01:43:25.703Z,21.27
2024-01-06T01:48:27.675Z,21.65
2024-01-06T01:53:29.577Z,22.95
2024-01-06T01:58:31.450Z,22.67
2024-01-06T02:03:33.901Z,22.95
2024-01-06T02:08:35.623Z,19.98
2024-01-06T02:13:38.714Z,23.92
2024-01-06T02:18:40.461Z,25.20
2024-01-06T02:23:42.105Z,23.30
2024-01-06T02:28:48.931Z,24.10
2024-01-06T02:33:50.839Z,23.58
2024-01-06T02:38:52.505Z,23.20
2024-01-06T02:43:55.930Z,22.52
2024-01-06T02:48:57.692Z,22.33
2024-01-06T02:53:59.355Z,21.23
2024-01-06T02:59:00.949Z,22.52
2024-01-06T03:04:02.774Z,22.08
2024-01-06T03:09:04.527Z,22.38
2024-01-06T03:14:06.140Z,22.95
2024-01-06T03:19:07.954Z,21.33
2024-01-06T03:24:10.479Z,21.38
2024-01-06T03:29:12.948Z,20.92
2024-01-06T03:34:14.813Z,19.90
2024-01-06T03:39:16.620Z,21.77
2024-01-06T03:44:18.253Z,20.58
2024-01-06T03:49:21.963Z,20.98
2024-01-06T03:54:23.978Z,20.75
2024-01-06T03:59:25.618Z,20.13
2024-01-06T04:04:27.222Z,20.95
2024-01-06T04:09:28.891Z,19.30
2024-01-06T04:14:30.500Z,20.63
2024-01-06T04:19:32.513Z,19.60
2024-01-06T04:24:38.473Z,19.80
2024-01-06T04:29:40.618Z,21.83
2024-01-06T04:34:43.074Z,21.63
2024-01-06T04:39:44.885Z,21.58
2024-01-06T04:44:46.584Z,21.27
2024-01-06T04:49:48.375Z,21.55
2024-01-06T04:54:50.169Z,20.40
2024-01-06T04:59:51.920Z,22.33
2024-01-06T05:04:53.586Z,22.70
2024-01-06T05:09:55.273Z,21.70
2024-01-06T05:14:56.935Z,22.05
2024-01-06T05:19:59.668Z,22.50
2024-01-06T05:25:01.308Z,23.73
2024-01-06T05:30:03.474Z,21.25
2024-01-06T05:35:05.973Z,21.05
2024-01-06T05:40:08.465Z,21.02
2024-01-06T05:45:14.300Z,21.30
2024-01-06T05:50:17.216Z,20.23
2024-01-06T05:55:18.865Z,20.27
2024-01-06T06:00:20.753Z,20.45
2024-01-06T06:05:22.451Z,19.70
2024-01-06T06:10:24.152Z,19.02
2024-01-06T06:15:25.839Z,18.27
2024-01-06T06:20:27.480Z,19.92
2024-01-06T06:25:29.075Z,18.63
2024-01-06T06:30:30.753Z,18.05
2024-01-06T06:35:32.452Z,17.92
2024-01-06T06:40:34.074Z,18.10
2024-01-06T06:45:36.283Z,18.50
2024-01-06T06:50:38.014Z,17.88
2024-01-06T06:55:39.781Z,17.25
2024-01-06T07:00:41.679Z,19.25
2024-01-06T07:05:43.464Z,17.33
2024-01-06T07:10:45.984Z,17.73
2024-01-06T07:15:47.624Z,18.75
2024-01-06T07:20:49.452Z,16.67
2024-01-06T07:25:51.046Z,16.85
2024-01-06T07:30:52.732Z,18.05
2024-01-06T07:35:54.406Z,15.85
2024-01-06T07:40:56.003Z,17.70
2024-01-06T07:45:58.121Z,17.52
2024-01-06T07:50:59.741Z,17.30
2024-01-06T07:56:01.387Z,17.00
2024-01-06T08:01:03.184Z,16.65
2024-01-06T08:06:05.243Z,17.60
2024-01-06T08:11:06.873Z,18.05
2024-01-06T08:16:08.512Z,18.40
2024-01-06T08:21:10.165Z,18.70
2024-01-06T08:26:13.553Z,18.63
2024-01-06T08:31:15.717Z,18.38
2024-01-06T08:36:18.299Z,17.85
2024-01-06T08:41:19.933Z,17.27
2024-01-06T08:46:21.595Z,17.50
2024-01-06T08:51:23.276Z,17.80
2024-01-06T08:56:24.887Z,18.02
2024-01-06T09:01:26.699Z,18.00
2024-01-06T09:06:28.437Z,18.08
2024-01-06T09:11:30.050Z,18.17
2024-01-06T09:16:31.691Z,18.13
2024-01-06T09:21:33.369Z,16.77
2024-01-06T09:26:38.135Z,16.15
2024-01-06T09:31:40.157Z,17.08
2024-01-06T09:36:41.956Z,16.60
2024-01-06T09:41:43.867Z,17.10
2024-01-06T09:46:45.945Z,17.25
2024-01-06T09:51:52.427Z,16.38
2024-01-06T09:56:54.175Z,18.15
2024-01-06T10:01:57.580Z,17.75
2024-01-06T10:06:59.525Z,18.48
2024-01-06T10:12:01.381Z,17.45
2024-01-06T10:17:03.840Z,17.00
2024-01-06T10:22:05.640Z,18.88
2024-01-06T10:27:10.008Z,17.95
2024-01-06T10:32:11.715Z,19.50
2024-01-06T10:37:13.635Z,18.48
2024-01-06T10:42:16.469Z,18.20
2024-01-06T10:47:19.604Z,17.98
2024-01-06T10:52:22.261Z,17.80
2024-01-06T10:57:24.756Z,18.52
2024-01-06T11:02:27.615Z,17.10
2024-01-06T11:07:29.914Z,15.48
2024-01-06T11:12:31.692Z,17.33
2024-01-06T11:17:57.035Z,16.20
2024-01-06T11:23:20.545Z,18.83
2024-01-06T11:28:22.269Z,17.30
2024-01-06T11:33:23.978Z,17.23
2024-01-06T11:38:25.623Z,19.08
2024-01-06T11:43:28.257Z,18.95
2024-01-06T11:48:33.052Z,17.58
2024-01-06T11:53:34.920Z,20.08
2024-01-06T11:58:36.648Z,21.90
2024-01-06T12:03:38.389Z,22.70
2024-01-06T12:08:40.624Z,22.33
2024-01-06T12:13:42.242Z,22.83
2024-01-06T12:18:43.941Z,23.77
2024-01-06T12:23:45.624Z,21.38
2024-01-06T12:28:47.829Z,23.65
2024-01-06T12:33:49.690Z,23.23
2024-01-06T12:38:52.297Z,24.67
2024-01-06T12:43:54.055Z,24.48
2024-01-06T12:48:56.059Z,24.23
2024-01-06T12:53:57.879Z,24.63
2024-01-06T12:58:59.522Z,23.92
2024-01-06T13:04:02.641Z,25.27
2024-01-06T13:09:07.530Z,25.13
2024-01-06T13:14:10.028Z,25.65
2024-01-06T13:19:11.770Z,25.20
2024-01-06T13:24:13.568Z,25.40
2024-01-06T13:29:15.192Z,25.63
2024-01-06T13:34:17.223Z,26.05
2024-01-06T13:39:22.135Z,26.17
2024-01-06T13:44:24.152Z,25.25
2024-01-06T13:49:26.021Z,23.13
2024-01-06T13:54:27.939Z,24.17
2024-01-06T13:59:29.728Z,24.90
2024-01-06T14:04:31.705Z,24.73
2024-01-06T14:09:33.559Z,24.98
2024-01-06T14:14:35.258Z,24.50
2024-01-06T14:19:38.097Z,24.63
2024-01-06T14:24:39.733Z,22.00
2024-01-06T14:29:42.542Z,23.08
2024-01-06T14:34:44.425Z,22.40
2024-01-06T14:39:46.821Z,22.77
2024-01-06T14:44:48.469Z,24.73
2024-01-06T14:49:50.190Z,24.48
2024-01-06T14:54:51.954Z,24.08
2024-01-06T14:59:53.665Z,23.55
2024-01-06T15:04:56.046Z,22.38
2024-01-06T15:10:04.301Z,22.70
2024-01-06T15:15:08.378Z,22.75
2024-01-06T15:20:11.401Z,23.33
2024-01-06T15:25:13.354Z,25.02
2024-01-06T15:30:17.328Z,23.75
2024-01-06T15:35:20.591Z,22.88
2024-01-06T15:40:23.250Z,22.98
2024-01-06T15:45:24.956Z,22.30
2024-01-06T15:50:26.705Z,24.45
2024-01-06T15:55:28.289Z,23.17
2024-01-06T16:00:29.960Z,23.52
2024-01-06T16:05:31.682Z,23.08
2024-01-06T16:10:33.357Z,21.88
2024-01-06T16:15:35.079Z,21.92
2024-01-06T16:20:36.713Z,23.77
2024-01-06T16:25:39.458Z,21.73
2024-01-06T16:30:42.293Z,22.33
2024-01-06T16:35:47.074Z,22.98
2024-01-06T16:40:48.767Z,21.10
2024-01-06T16:45:50.541Z,21.10
2024-01-06T16:50:52.227Z,19.08
2024-01-06T16:55:53.950Z,17.67
2024-01-06T17:00:55.927Z,21.20
2024-01-06T17:05:57.691Z,20.05
2024-01-06T17:10:59.341Z,20.70
2024-01-06T17:16:01.001Z,19.60
2024-01-06T17:21:03.516Z,19.50
2024-01-06T17:26:05.116Z,21.08
2024-01-06T17:31:06.803Z,17.67
2024-01-06T17:36:08.614Z,19.00
2024-01-06T17:41:10.241Z,20.10
2024-01-06T17:46:11.895Z,22.73
2024-01-06T17:51:13.627Z,25.33
2024-01-06T17:56:15.413Z,47.15
2024-01-06T18:01:17.231Z,43.78
2024-01-06T18:06:19.046Z,18.27
2024-01-06T18:11:20.841Z,20.55
2024-01-06T18:16:22.689Z,22.70
2024-01-06T18:21:24.395Z,21.13
2024-01-06T18:26:27.026Z,16.08
2024-01-06T18:31:28.664Z,19.08
2024-01-06T18:36:30.387Z,18.83
2024-01-06T18:41:32.034Z,17.52
2024-01-06T18:46:33.668Z,16.73
2024-01-06T18:51:38.613Z,16.02
2024-01-06T18:56:40.403Z,15.27
2024-01-06T19:01:44.519Z,17.08
2024-01-06T19:06:47.811Z,17.90
2024-01-06T19:11:49.472Z,15.10
2024-01-06T19:16:51.625Z,15.63
2024-01-06T19:21:53.282Z,14.35
2024-01-06T19:26:55.859Z,14.57
2024-01-06T19:31:58.371Z,13.18
2024-01-06T19:37:00.225Z,12.05
2024-01-06T19:42:02.013Z,13.50
2024-01-06T19:47:03.834Z,12.82
2024-01-06T19:52:05.855Z,12.52
2024-01-06T19:57:09.073Z,12.00
2024-01-06T20:02:10.836Z,12.30
2024-01-06T20:07:12.661Z,12.40
2024-01-06T20:12:14.498Z,9.90
2024-01-06T20:17:16.567Z,11.35
2024-01-06T20:22:18.322Z,8.80
2024-01-06T20:27:20.402Z,10.95
2024-01-06T20:32:22.286Z,10.48
2024-01-06T20:37:26.253Z,22.17
2024-01-06T20:42:30.620Z,15.90
2024-01-06T20:47:32.413Z,12.10
2024-01-06T20:52:34.206Z,21.58
2024-01-06T20:57:35.918Z,13.27
2024-01-06T21:02:37.665Z,17.15
2024-01-06T21:07:42.543Z,15.98
2024-01-06T21:12:44.447Z,16.63
2024-01-06T21:17:46.215Z,19.30
2024-01-06T21:22:47.995Z,12.07
2024-01-06T21:27:49.837Z,15.20
2024-01-06T21:32:52.950Z,15.70
2024-01-06T21:37:54.662Z,20.35
2024-01-06T21:42:56.377Z,11.52
2024-01-06T21:47:58.238Z,12.02
2024-01-06T21:53:00.752Z,11.32
2024-01-06T21:58:02.417Z,11.48
2024-01-06T22:03:05.569Z,9.70
2024-01-06T22:08:08.271Z,9.85
2024-01-06T22:13:10.025Z,9.68
2024-01-06T22:18:11.832Z,10.18
2024-01-06T22:23:13.484Z,8.88
2024-01-06T22:28:15.399Z,9.23
2024-01-06T22:33:18.245Z,8.45
2024-01-06T22:38:19.982Z,9.27
2024-01-06T22:43:21.601Z,9.10
2024-01-06T22:48:23.298Z,9.13
2024-01-06T22:53:24.960Z,9.68
2024-01-06T22:58:26.757Z,8.50
2024-01-06T23:03:28.606Z,8.48
2024-01-06T23:08:30.321Z,8.32
2024-01-06T23:13:32.285Z,8.43
2024-01-06T23:18:34.137Z,8.35
2024-01-06T23:23:37.674Z,7.75
2024-01-06T23:28:39.277Z,8.60
2024-01-06T23:33:41.606Z,7.68
2024-01-06T23:38:43.422Z,7.32
2024-01-06T23:43:45.095Z,7.75
2024-01-06T23:48:46.871Z,7.40
2024-01-06T23:53:50.762Z,7.38
2024-01-06T23:58:53.855Z,7.05
